Kristin D — C6XA6 — position and weather

sailwx.info

Track history (hours):
 
Tides and Currents Weather Stations Pressure Air Temp Water Temp Dewpoint Dewpoint Depression Visibility Wind Speed Wind Dir Waves Ship Positions

Kristin D

Last reported at 2015-Apr-27 21:13 UTC. Time now 2015-May-05 10:14 UTC.
Position N 50°35' E 000°17'.

Length 90 m; draft 4.2 m.

Type: Cargo ship. MMSI: 311003700.

Date/timePositionNaut miles runAvg speedWind from/ knotsBaromVisibWave heightAir tempDewpointWater temp
2015-Apr-27 21:13N 50°35' E 000°17'711.0
2015-Apr-27 20:33N 50°37' E 000°28'1110.8
2015-Apr-27 19:33N 50°42' E 000°42'1111.1
2015-Apr-27 18:31N 50°49' E 000°57'2311.5
2015-Apr-27 16:29N 51°04' E 001°26'1213.3
2015-Apr-27 15:33N 51°12' E 001°41'1313.2
2015-Apr-27 14:33N 51°23' E 001°52'1413.0
2015-Apr-27 13:29N 51°34' E 002°06'  
2015-Apr-24 10:10N 62°56' E 008°08'  
2015-Apr-21 02:29N 57°42' W 000°56'9 9.9
2015-Apr-21 01:33N 57°34' W 001°06'10 9.9
2015-Apr-21 00:33N 57°26' W 001°18'1010.0
2015-Apr-20 23:33N 57°18' W 001°29'1110.7
2015-Apr-20 22:33N 57°09' W 001°40'  
Track history (hours):
 
Tides and Currents Weather Stations Pressure Air Temp Water Temp Dewpoint Dewpoint Depression Visibility Wind Speed Wind Dir Waves Ship Positions

Kristin D

Last reported at 2015-Apr-27 21:13 UTC. Time now 2015-May-05 10:14 UTC.
Position N 50°35' E 000°17'.

Length 90 m; draft 4.2 m.

Type: Cargo ship. MMSI: 311003700.

Date/timePositionNaut miles runAvg speedWind from/ knotsBaromVisibWave heightAir tempDewpointWater temp
2015-Apr-27 21:13N 50°35' E 000°17'711.0
2015-Apr-27 20:33N 50°37' E 000°28'1110.8
2015-Apr-27 19:33N 50°42' E 000°42'1111.1
2015-Apr-27 18:31N 50°49' E 000°57'2311.5
2015-Apr-27 16:29N 51°04' E 001°26'1213.3
2015-Apr-27 15:33N 51°12' E 001°41'1313.2
2015-Apr-27 14:33N 51°23' E 001°52'1413.0
2015-Apr-27 13:29N 51°34' E 002°06'  
2015-Apr-24 10:10N 62°56' E 008°08'  
2015-Apr-21 02:29N 57°42' W 000°56'9 9.9
2015-Apr-21 01:33N 57°34' W 001°06'10 9.9
2015-Apr-21 00:33N 57°26' W 001°18'1010.0
2015-Apr-20 23:33N 57°18' W 001°29'1110.7
2015-Apr-20 22:33N 57°09' W 001°40'  

Dump ship's entire track history